createdAt,value
2022-11-19T00:00:55.261Z,6.295471
2022-11-19T00:02:03.987Z,6.305542
2022-11-19T00:03:13.667Z,6.305542
2022-11-19T00:04:22.335Z,6.325684
2022-11-19T00:05:32.030Z,6.355896
2022-11-19T00:06:40.728Z,6.416321
2022-11-19T00:07:48.435Z,6.416321
2022-11-19T00:08:58.104Z,6.436462
2022-11-19T00:10:06.832Z,6.416321
2022-11-19T00:11:15.504Z,6.446533
2022-11-19T00:12:25.186Z,6.416321
2022-11-19T00:13:32.855Z,6.436462
2022-11-19T00:14:42.548Z,6.436462
2022-11-19T00:15:51.391Z,6.446533
2022-11-19T00:17:00.037Z,6.436462
2022-11-19T00:18:09.732Z,6.436462
2022-11-19T00:19:18.628Z,6.416321
2022-11-19T00:20:27.096Z,6.40625
2022-11-19T00:21:36.802Z,6.40625
2022-11-19T00:22:44.485Z,6.416321
2022-11-19T00:23:54.156Z,6.436462
2022-11-19T00:25:02.856Z,6.436462
2022-11-19T00:26:10.517Z,6.436462
2022-11-19T00:27:20.218Z,6.416321
2022-11-19T00:28:27.896Z,6.416321
2022-11-19T00:29:36.579Z,6.436462
2022-11-19T00:30:48.556Z,6.40625
2022-11-19T00:31:55.984Z,6.416321
2022-11-19T00:33:05.788Z,6.416321
2022-11-19T00:34:15.477Z,6.40625
2022-11-19T00:35:24.141Z,6.386108
2022-11-19T00:36:33.878Z,6.355896
2022-11-19T00:37:41.551Z,6.345825
2022-11-19T00:38:50.267Z,6.325684
2022-11-19T00:39:59.928Z,6.295471
2022-11-19T00:41:08.616Z,6.265259
2022-11-19T00:42:18.302Z,6.224976
2022-11-19T00:43:25.989Z,6.194763
2022-11-19T00:44:37.287Z,6.124268
2022-11-19T00:45:44.355Z,6.114197
2022-11-19T00:46:52.025Z,6.094055
2022-11-19T00:48:01.751Z,6.083984
2022-11-19T00:49:10.391Z,6.053772
2022-11-19T00:50:20.086Z,6.053772
2022-11-19T00:51:29.767Z,6.02356
2022-11-19T00:52:38.420Z,6.02356
2022-11-19T00:53:47.084Z,6.013489
2022-11-19T00:54:56.765Z,6.043701
2022-11-19T00:56:06.473Z,6.02356
2022-11-19T00:57:15.139Z,6.02356
2022-11-19T00:58:24.817Z,6.02356
2022-11-19T00:59:33.510Z,6.013489
2022-11-19T01:00:43.185Z,6.013489
2022-11-19T01:01:51.891Z,6.043701
2022-11-19T01:02:59.557Z,6.02356
2022-11-19T01:04:09.274Z,6.043701
2022-11-19T01:05:17.933Z,6.053772
2022-11-19T01:06:26.598Z,6.053772
2022-11-19T01:07:36.397Z,6.053772
2022-11-19T01:08:43.982Z,6.073914
2022-11-19T01:09:53.667Z,6.053772
2022-11-19T01:11:03.361Z,6.073914
2022-11-19T01:12:13.032Z,6.073914
2022-11-19T01:13:22.735Z,6.073914
2022-11-19T01:14:30.416Z,6.094055
2022-11-19T01:15:40.086Z,6.114197
2022-11-19T01:16:48.763Z,6.124268
2022-11-19T01:17:57.451Z,6.164551
2022-11-19T01:19:07.172Z,6.194763
2022-11-19T01:20:17.409Z,6.204834
2022-11-19T01:21:26.026Z,6.204834
2022-11-19T01:22:35.706Z,6.235046
2022-11-19T01:23:43.386Z,6.255188
2022-11-19T01:24:53.171Z,6.27533
2022-11-19T01:26:00.873Z,6.27533
2022-11-19T01:27:10.560Z,6.305542
2022-11-19T01:28:20.247Z,6.305542
2022-11-19T01:29:28.915Z,6.325684
2022-11-19T01:30:38.635Z,6.305542
2022-11-19T01:31:48.292Z,6.325684
2022-11-19T01:32:56.990Z,6.345825
2022-11-19T01:34:07.688Z,6.355896
2022-11-19T01:35:16.386Z,6.355896
2022-11-19T01:36:26.125Z,6.386108
2022-11-19T01:37:35.791Z,6.376038
2022-11-19T01:38:43.484Z,6.386108
2022-11-19T01:39:53.169Z,6.376038
2022-11-19T01:41:02.857Z,6.386108
2022-11-19T01:42:10.607Z,6.40625
2022-11-19T01:43:20.273Z,6.386108
2022-11-19T01:44:27.935Z,6.386108
2022-11-19T01:45:37.604Z,6.386108
2022-11-19T01:46:47.273Z,6.40625
2022-11-19T01:47:54.953Z,6.40625
2022-11-19T01:49:04.631Z,6.40625
2022-11-19T01:50:13.281Z,6.40625
2022-11-19T01:51:21.940Z,6.40625
2022-11-19T01:52:31.635Z,6.40625
2022-11-19T01:53:41.318Z,6.416321
2022-11-19T01:54:49.991Z,6.416321
2022-11-19T01:55:59.694Z,6.416321
2022-11-19T01:57:09.373Z,6.416321
2022-11-19T01:58:19.066Z,6.416321
2022-11-19T01:59:28.763Z,6.436462
2022-11-19T02:00:38.458Z,6.436462
2022-11-19T02:01:48.253Z,6.416321
2022-11-19T02:02:57.840Z,6.416321
2022-11-19T02:04:06.506Z,6.416321
2022-11-19T02:05:16.231Z,6.436462
2022-11-19T02:06:25.911Z,6.436462
2022-11-19T02:07:35.679Z,6.436462
2022-11-19T02:08:45.298Z,6.436462
2022-11-19T02:09:52.952Z,6.436462
2022-11-19T02:11:02.706Z,6.416321
2022-11-19T02:12:11.389Z,6.40625
2022-11-19T02:13:21.058Z,6.40625
2022-11-19T02:14:30.731Z,6.436462
2022-11-19T02:15:38.399Z,6.416321
2022-11-19T02:16:48.091Z,6.40625
2022-11-19T02:17:57.804Z,6.416321
2022-11-19T02:19:06.455Z,6.416321
2022-11-19T02:20:16.107Z,6.416321
2022-11-19T02:21:23.787Z,6.416321
2022-11-19T02:22:32.465Z,6.416321
2022-11-19T02:23:46.098Z,6.416321
2022-11-19T02:24:51.800Z,6.416321
2022-11-19T02:26:01.466Z,6.416321
2022-11-19T02:27:10.150Z,6.416321
2022-11-19T02:28:19.855Z,6.416321
2022-11-19T02:29:29.534Z,6.436462
2022-11-19T02:30:39.226Z,6.456604
2022-11-19T02:31:48.906Z,6.506958
2022-11-19T02:32:58.617Z,6.486816
2022-11-19T02:34:07.310Z,6.476746
2022-11-19T02:35:17.090Z,6.446533
2022-11-19T02:36:26.755Z,6.446533
2022-11-19T02:37:35.430Z,6.436462
2022-11-19T02:38:45.122Z,6.446533
2022-11-19T02:39:53.907Z,6.446533
2022-11-19T02:41:02.621Z,6.456604
2022-11-19T02:42:12.294Z,6.436462
2022-11-19T02:43:19.963Z,6.436462
2022-11-19T02:44:29.623Z,6.416321
2022-11-19T02:45:38.431Z,6.416321
2022-11-19T02:46:47.100Z,6.416321
2022-11-19T02:47:56.774Z,6.416321
2022-11-19T02:49:04.446Z,6.416321
2022-11-19T02:50:13.099Z,6.40625
2022-11-19T02:51:22.829Z,6.40625
2022-11-19T02:52:30.501Z,6.40625
2022-11-19T02:53:40.166Z,6.386108
2022-11-19T02:54:48.865Z,6.40625
2022-11-19T02:55:57.514Z,6.386108
2022-11-19T02:57:07.266Z,6.40625
2022-11-19T02:58:14.947Z,6.376038
2022-11-19T02:59:23.602Z,6.40625
2022-11-19T03:00:33.338Z,6.40625
2022-11-19T03:01:41.174Z,6.40625
2022-11-19T03:02:50.773Z,6.40625
2022-11-19T03:04:00.467Z,6.40625
2022-11-19T03:05:10.162Z,6.386108
2022-11-19T03:06:19.836Z,6.40625
2022-11-19T03:07:28.537Z,6.416321
2022-11-19T03:08:37.203Z,6.416321
2022-11-19T03:09:46.880Z,6.40625
2022-11-19T03:10:56.703Z,6.416321
2022-11-19T03:12:06.238Z,6.416321
2022-11-19T03:13:14.928Z,6.436462
2022-11-19T03:14:24.642Z,6.446533
2022-11-19T03:15:33.314Z,6.476746
2022-11-19T03:16:40.985Z,6.456604
2022-11-19T03:17:50.660Z,6.456604
2022-11-19T03:19:00.370Z,6.456604
2022-11-19T03:20:09.070Z,6.476746
2022-11-19T03:21:19.736Z,6.456604
2022-11-19T03:22:27.415Z,6.456604
2022-11-19T03:23:37.092Z,6.456604
2022-11-19T03:24:45.839Z,6.456604
2022-11-19T03:25:53.561Z,6.456604
2022-11-19T03:27:03.248Z,6.446533
2022-11-19T03:28:11.941Z,6.446533
2022-11-19T03:29:20.948Z,6.456604
2022-11-19T03:30:30.292Z,6.456604
2022-11-19T03:31:37.986Z,6.506958
2022-11-19T03:32:47.672Z,6.506958
2022-11-19T03:33:56.338Z,6.517029
2022-11-19T03:35:06.079Z,6.506958
2022-11-19T03:36:15.779Z,6.506958
2022-11-19T03:37:25.486Z,6.486816
2022-11-19T03:38:34.165Z,6.506958
2022-11-19T03:39:43.857Z,6.486816
2022-11-19T03:40:51.587Z,6.506958
2022-11-19T03:42:02.278Z,6.506958
2022-11-19T03:43:10.979Z,6.506958
2022-11-19T03:44:18.636Z,6.506958
2022-11-19T03:45:28.334Z,6.517029
2022-11-19T03:46:37.003Z,6.506958
2022-11-19T03:47:46.651Z,6.506958
2022-11-19T03:48:56.490Z,6.517029
2022-11-19T03:50:04.182Z,6.557312
2022-11-19T03:51:13.877Z,6.53717
2022-11-19T03:52:22.562Z,6.557312
2022-11-19T03:53:32.240Z,6.557312
2022-11-19T03:54:41.926Z,6.567383
2022-11-19T03:55:50.591Z,6.557312
2022-11-19T03:56:59.253Z,6.567383
2022-11-19T03:58:08.977Z,6.567383
2022-11-19T03:59:18.872Z,6.567383
2022-11-19T04:00:28.311Z,6.567383
2022-11-19T04:01:37.078Z,6.587524
2022-11-19T04:02:44.641Z,6.587524
2022-11-19T04:03:54.316Z,6.587524
2022-11-19T04:05:02.982Z,6.597595
2022-11-19T04:06:11.759Z,6.597595
2022-11-19T04:07:22.513Z,6.587524
2022-11-19T04:08:30.079Z,6.587524
2022-11-19T04:09:39.748Z,6.567383
2022-11-19T04:10:48.413Z,6.557312
2022-11-19T04:11:58.132Z,6.557312
2022-11-19T04:13:07.827Z,6.567383
2022-11-19T04:14:16.485Z,6.53717
2022-11-19T04:15:26.186Z,6.53717
2022-11-19T04:16:35.823Z,6.53717
2022-11-19T04:17:44.524Z,6.486816
2022-11-19T04:18:54.171Z,6.486816
2022-11-19T04:20:02.864Z,6.486816
2022-11-19T04:21:11.597Z,6.456604
2022-11-19T04:22:21.278Z,6.456604
2022-11-19T04:23:29.979Z,6.456604
2022-11-19T04:24:39.669Z,6.436462
2022-11-19T04:25:49.348Z,6.436462
2022-11-19T04:26:57.017Z,6.416321
2022-11-19T04:28:06.729Z,6.386108
2022-11-19T04:29:15.483Z,6.386108
2022-11-19T04:30:24.166Z,6.345825
2022-11-19T04:31:33.875Z,6.355896
2022-11-19T04:32:43.516Z,6.345825
2022-11-19T04:33:52.196Z,6.305542
2022-11-19T04:35:01.888Z,6.295471
2022-11-19T04:36:10.595Z,6.295471
2022-11-19T04:37:20.342Z,6.27533
2022-11-19T04:38:29.022Z,6.265259
2022-11-19T04:39:37.735Z,6.235046
2022-11-19T04:40:47.446Z,6.235046
2022-11-19T04:41:55.127Z,6.224976
2022-11-19T04:43:04.799Z,6.204834
2022-11-19T04:44:14.723Z,6.204834
2022-11-19T04:45:23.367Z,6.235046
2022-11-19T04:46:32.055Z,6.235046
2022-11-19T04:47:40.781Z,6.235046
2022-11-19T04:48:48.448Z,6.224976
2022-11-19T04:49:58.153Z,6.204834
2022-11-19T04:51:06.831Z,6.194763
2022-11-19T04:52:15.653Z,6.174622
2022-11-19T04:53:25.339Z,6.124268
2022-11-19T04:54:33.003Z,6.124268
2022-11-19T04:55:42.677Z,6.114197
2022-11-19T04:56:51.346Z,6.094055
2022-11-19T04:58:00.039Z,6.094055
2022-11-19T04:59:09.720Z,6.094055
2022-11-19T05:00:18.396Z,6.083984
2022-11-19T05:01:27.121Z,6.094055
2022-11-19T05:02:36.822Z,6.094055
2022-11-19T05:03:46.567Z,6.083984
2022-11-19T05:04:56.230Z,6.083984
2022-11-19T05:06:05.962Z,6.083984
2022-11-19T05:07:14.705Z,6.053772
2022-11-19T05:08:24.320Z,6.043701
2022-11-19T05:09:32.023Z,6.043701
2022-11-19T05:10:41.689Z,6.013489
2022-11-19T05:11:49.405Z,6.02356
2022-11-19T05:12:58.081Z,6.013489
2022-11-19T05:14:07.751Z,6.043701
2022-11-19T05:15:15.443Z,6.053772
2022-11-19T05:16:25.155Z,6.053772
2022-11-19T05:17:33.840Z,6.053772
2022-11-19T05:18:41.518Z,6.073914
2022-11-19T05:19:51.218Z,6.073914
2022-11-19T05:21:00.898Z,6.083984
2022-11-19T05:22:09.565Z,6.114197
2022-11-19T05:23:19.234Z,6.144409
2022-11-19T05:24:28.911Z,6.164551
2022-11-19T05:25:38.565Z,6.164551
2022-11-19T05:26:47.255Z,6.204834
2022-11-19T05:27:55.941Z,6.204834
2022-11-19T05:29:05.622Z,6.204834
2022-11-19T05:30:13.305Z,6.224976
2022-11-19T05:31:21.977Z,6.235046
2022-11-19T05:32:31.686Z,6.204834
2022-11-19T05:33:40.365Z,6.204834
2022-11-19T05:34:50.064Z,6.194763
2022-11-19T05:35:58.780Z,6.194763
2022-11-19T05:37:07.430Z,6.144409
2022-11-19T05:38:17.177Z,6.144409
2022-11-19T05:39:26.206Z,6.124268
2022-11-19T05:40:34.539Z,6.124268
2022-11-19T05:41:44.263Z,6.114197
2022-11-19T05:42:52.992Z,6.073914
2022-11-19T05:44:02.697Z,6.02356
2022-11-19T05:45:11.450Z,5.993347
2022-11-19T05:46:19.164Z,5.993347
2022-11-19T05:47:27.874Z,5.993347
2022-11-19T05:48:36.557Z,5.993347
2022-11-19T05:49:45.225Z,5.983276
2022-11-19T05:50:54.906Z,5.983276
2022-11-19T05:52:04.632Z,5.973206
2022-11-19T05:53:14.288Z,5.932922
2022-11-19T05:54:22.965Z,5.912781
2022-11-19T05:55:30.650Z,5.912781
2022-11-19T05:56:40.314Z,5.912781
2022-11-19T05:57:48.976Z,5.912781
2022-11-19T05:58:57.653Z,5.932922
2022-11-19T06:00:07.315Z,5.942993
2022-11-19T06:01:15.000Z,5.973206
2022-11-19T06:02:24.707Z,5.932922
2022-11-19T06:03:33.345Z,5.942993
2022-11-19T06:04:41.995Z,5.942993
2022-11-19T06:05:51.678Z,5.973206
2022-11-19T06:06:59.427Z,5.942993
2022-11-19T06:08:09.227Z,5.90271
2022-11-19T06:09:18.955Z,5.912781
2022-11-19T06:10:27.386Z,5.90271
2022-11-19T06:11:37.056Z,5.892639
2022-11-19T06:12:46.279Z,5.872498
2022-11-19T06:13:54.451Z,5.872498
2022-11-19T06:15:04.115Z,5.872498
2022-11-19T06:16:12.798Z,5.872498
2022-11-19T06:17:21.484Z,5.862427
2022-11-19T06:18:31.237Z,5.892639
2022-11-19T06:19:39.917Z,5.872498
2022-11-19T06:20:49.576Z,5.892639
2022-11-19T06:21:58.268Z,5.90271
2022-11-19T06:23:05.923Z,5.862427
2022-11-19T06:24:15.647Z,5.872498
2022-11-19T06:25:25.330Z,5.872498
2022-11-19T06:26:33.985Z,5.872498
2022-11-19T06:27:43.672Z,5.892639
2022-11-19T06:28:51.340Z,5.872498
2022-11-19T06:30:01.015Z,5.872498
2022-11-19T06:31:09.706Z,5.872498
2022-11-19T06:32:17.379Z,5.892639
2022-11-19T06:33:26.029Z,5.892639
2022-11-19T06:34:35.793Z,5.892639
2022-11-19T06:35:44.476Z,5.892639
2022-11-19T06:36:54.147Z,5.892639
2022-11-19T06:38:03.808Z,5.872498
2022-11-19T06:39:13.488Z,5.892639
2022-11-19T06:40:23.272Z,5.912781
2022-11-19T06:41:31.928Z,5.912781
2022-11-19T06:42:41.610Z,5.932922
2022-11-19T06:43:51.241Z,5.932922
2022-11-19T06:44:59.895Z,5.932922
2022-11-19T06:46:09.564Z,5.932922
2022-11-19T06:47:19.299Z,5.973206
2022-11-19T06:48:28.951Z,5.973206
2022-11-19T06:49:38.629Z,5.973206
2022-11-19T06:50:46.277Z,5.973206
2022-11-19T06:51:55.959Z,5.973206
2022-11-19T06:53:04.643Z,5.993347
2022-11-19T06:54:13.333Z,5.983276
2022-11-19T06:55:23.030Z,5.993347
2022-11-19T06:56:32.740Z,5.983276
2022-11-19T06:57:42.375Z,5.993347
2022-11-19T06:58:51.190Z,6.013489
2022-11-19T06:59:59.841Z,6.02356
2022-11-19T07:01:09.511Z,6.02356
2022-11-19T07:02:21.224Z,6.043701
2022-11-19T07:03:26.913Z,6.053772
2022-11-19T07:04:36.590Z,6.073914
2022-11-19T07:05:44.262Z,6.083984
2022-11-19T07:06:53.935Z,6.073914
2022-11-19T07:08:03.132Z,6.083984
2022-11-19T07:09:10.276Z,6.094055
2022-11-19T07:10:18.970Z,6.114197
2022-11-19T07:11:25.661Z,6.114197
2022-11-19T07:12:35.357Z,6.124268
2022-11-19T07:13:45.012Z,6.124268
2022-11-19T07:14:56.572Z,6.164551
2022-11-19T10:11:37.619Z,0
2022-11-19T10:12:47.253Z,8.611755
2022-11-19T10:13:54.914Z,8.551331
2022-11-19T10:15:04.586Z,8.561401
2022-11-19T10:16:14.254Z,8.531189
2022-11-19T10:17:22.933Z,8.511047
2022-11-19T10:18:32.615Z,8.490906
2022-11-19T10:19:40.288Z,8.460693
2022-11-19T10:20:48.918Z,8.42041
2022-11-19T10:21:58.570Z,8.410339
2022-11-19T10:23:06.247Z,8.410339
2022-11-19T10:24:15.903Z,8.380127
2022-11-19T10:25:24.559Z,8.42041
2022-11-19T10:26:34.318Z,8.460693
2022-11-19T10:27:45.008Z,8.480835
2022-11-19T10:28:54.653Z,8.460693
2022-11-19T10:30:03.306Z,8.460693
2022-11-19T10:31:12.963Z,8.450623
2022-11-19T10:32:22.631Z,8.410339
2022-11-19T10:33:32.379Z,8.380127
2022-11-19T10:34:41.110Z,8.410339
2022-11-19T10:35:50.734Z,8.410339
2022-11-19T10:37:00.391Z,8.440552
2022-11-19T10:38:10.562Z,8.440552
2022-11-19T10:39:20.385Z,8.460693
2022-11-19T10:40:29.976Z,8.511047
2022-11-19T10:41:39.639Z,8.521118
2022-11-19T10:42:48.307Z,8.551331
2022-11-19T10:43:57.952Z,8.561401
2022-11-19T10:45:06.605Z,8.611755
2022-11-19T10:46:19.057Z,8.662109
2022-11-19T10:47:28.714Z,8.641968
2022-11-19T10:48:38.371Z,8.631897
2022-11-19T10:49:48.052Z,8.611755
2022-11-19T10:50:56.717Z,8.662109
2022-11-19T10:52:06.395Z,8.692322
2022-11-19T10:53:15.052Z,8.712463
2022-11-19T10:54:22.694Z,8.742676
2022-11-19T10:55:32.415Z,8.782959
2022-11-19T10:56:40.074Z,8.79303
2022-11-19T10:57:49.843Z,8.762817
2022-11-19T10:58:59.509Z,8.762817
2022-11-19T11:00:09.189Z,8.742676
2022-11-19T11:01:18.913Z,8.732605
2022-11-19T11:02:28.096Z,8.762817
2022-11-19T11:03:36.193Z,8.782959
2022-11-19T11:04:44.846Z,8.79303
2022-11-19T11:05:54.507Z,8.742676
2022-11-19T11:07:04.252Z,8.702393
2022-11-19T11:08:12.835Z,8.732605
2022-11-19T11:09:20.863Z,8.712463
2022-11-19T11:10:30.184Z,8.712463
2022-11-19T11:11:37.830Z,8.732605
2022-11-19T11:12:47.485Z,8.732605
2022-11-19T11:13:56.179Z,8.762817
2022-11-19T11:15:05.129Z,8.823242
2022-11-19T11:16:14.823Z,8.843384
2022-11-19T11:17:22.488Z,8.883667
2022-11-19T11:18:31.165Z,8.913879
2022-11-19T11:19:40.847Z,8.974304
2022-11-19T11:20:49.539Z,9.034729
2022-11-19T11:21:59.187Z,9.064941
2022-11-19T11:23:07.884Z,9.034729
2022-11-19T11:24:16.620Z,9.0448
2022-11-19T11:25:26.342Z,9.105225
2022-11-19T11:26:34.018Z,9.205933
2022-11-19T11:27:42.695Z,9.246216
2022-11-19T11:28:52.362Z,9.246216
2022-11-19T11:30:00.445Z,9.256287
2022-11-19T11:31:10.101Z,9.286499
2022-11-19T11:32:17.777Z,9.306641
2022-11-19T11:33:26.438Z,9.356995
2022-11-19T11:34:36.184Z,9.407349
2022-11-19T11:35:44.835Z,9.367065
2022-11-19T11:36:54.490Z,9.397278
2022-11-19T11:38:04.177Z,9.42749
2022-11-19T11:39:12.858Z,9.397278
2022-11-19T11:40:22.520Z,9.407349
2022-11-19T11:42:04.049Z,9.457703
2022-11-19T11:42:42.016Z,9.54834
2022-11-19T11:43:51.719Z,9.588623
2022-11-19T11:45:00.424Z,9.638977
2022-11-19T11:46:10.166Z,9.729614
2022-11-19T11:47:19.829Z,9.890747
2022-11-19T11:48:28.492Z,10.202942
2022-11-19T11:49:38.185Z,10.384216
2022-11-19T11:50:47.847Z,10.283508
2022-11-19T11:51:56.516Z,10.132446
2022-11-19T11:53:06.230Z,10.092163
2022-11-19T11:54:18.106Z,9.840393
2022-11-19T11:55:25.622Z,9.608765
2022-11-19T11:56:35.335Z,9.538269
2022-11-19T11:57:44.035Z,9.437561
2022-11-19T11:58:53.706Z,9.437561
2022-11-19T12:00:02.381Z,9.477844
2022-11-19T12:01:14.293Z,9.508057
2022-11-19T12:02:19.762Z,9.467773
2022-11-19T12:03:30.368Z,9.477844
2022-11-19T12:04:41.010Z,9.477844
2022-11-19T12:05:49.687Z,9.42749
2022-11-19T12:06:59.408Z,9.336853
2022-11-19T12:08:09.075Z,9.286499
2022-11-19T12:09:19.037Z,9.306641
2022-11-19T12:10:28.419Z,9.256287
2022-11-19T12:11:38.187Z,9.457703
2022-11-19T12:12:46.880Z,9.558411
2022-11-19T12:13:55.560Z,9.870605
2022-11-19T12:15:06.210Z,10.05188
2022-11-19T12:16:13.892Z,10.233154
2022-11-19T12:17:23.617Z,10.494995
2022-11-19T12:18:33.531Z,10.736694
2022-11-19T12:19:42.226Z,10.958252
2022-11-19T12:20:51.904Z,11.149597
2022-11-19T12:22:01.568Z,11.230164
2022-11-19T12:23:10.255Z,11.401367
2022-11-19T12:24:19.943Z,11.351013
2022-11-19T12:25:29.631Z,11.451721
2022-11-19T12:26:39.321Z,11.592712
2022-11-19T12:27:47.965Z,11.69342
2022-11-19T12:28:56.855Z,11.844482
2022-11-19T12:30:06.592Z,11.864624
2022-11-19T12:31:17.966Z,11.884766
2022-11-19T12:32:27.645Z,11.834412
2022-11-19T12:33:37.288Z,11.371155
2022-11-19T12:34:45.949Z,11.048889
2022-11-19T12:35:55.779Z,10.80719
2022-11-19T12:37:04.448Z,10.535278
2022-11-19T12:38:12.172Z,10.444641
2022-11-19T12:39:22.119Z,10.444641
2022-11-19T12:40:38.763Z,10.263367
2022-11-19T12:41:41.169Z,10.122375
2022-11-19T12:42:50.839Z,9.981384
2022-11-19T12:44:00.544Z,9.860535
2022-11-19T12:45:10.215Z,9.769897
2022-11-19T12:46:18.883Z,9.608765
2022-11-19T12:47:27.579Z,9.508057
2022-11-19T12:48:38.272Z,9.54834
2022-11-19T12:49:47.914Z,9.890747
2022-11-19T12:50:57.591Z,9.920959
2022-11-19T12:52:07.268Z,10.102234
2022-11-19T12:53:14.938Z,10.072021
2022-11-19T12:54:33.338Z,10.192871
2022-11-19T12:55:35.234Z,10.595703
2022-11-19T12:56:44.906Z,10.666199
2022-11-19T12:57:53.579Z,10.92804
2022-11-19T12:59:02.261Z,11.099243
2022-11-19T13:00:11.961Z,11.169739
2022-11-19T13:01:21.740Z,11.330872
2022-11-19T13:02:30.349Z,11.481934
2022-11-19T13:03:40.019Z,11.290588
2022-11-19T13:04:48.735Z,11.149597
2022-11-19T13:05:58.372Z,11.169739
2022-11-19T13:07:08.093Z,11.230164
2022-11-19T13:08:15.733Z,11.270447
2022-11-19T13:09:25.400Z,11.169739
2022-11-19T13:10:33.095Z,11.250305
2022-11-19T13:11:42.762Z,11.069031
2022-11-19T13:12:52.466Z,10.917969
2022-11-19T13:14:00.124Z,10.93811
2022-11-19T13:15:09.817Z,11.069031
2022-11-19T13:16:19.504Z,11.270447
2022-11-19T13:17:27.891Z,11.250305
2022-11-19T13:18:37.571Z,11.109314
2022-11-19T13:19:45.252Z,11.149597
2022-11-19T13:20:53.942Z,10.998535
2022-11-19T13:22:03.673Z,10.998535
2022-11-19T13:23:13.349Z,11.139526
2022-11-19T13:24:23.076Z,11.038818
2022-11-19T13:25:32.759Z,10.998535
2022-11-19T13:26:42.419Z,10.857544
2022-11-19T13:27:52.094Z,10.525208
2022-11-19T13:29:00.796Z,10.283508
2022-11-19T13:30:09.482Z,10.072021
2022-11-19T13:31:19.171Z,10.011597
2022-11-19T13:32:26.884Z,9.890747
2022-11-19T13:33:36.561Z,9.860535
2022-11-19T13:34:45.204Z,9.729614
2022-11-19T13:35:53.896Z,9.659119
2022-11-19T13:37:03.572Z,9.689331
2022-11-19T13:38:13.232Z,9.719543
2022-11-19T13:39:23.149Z,9.890747
2022-11-19T13:40:34.556Z,10.192871
2022-11-19T13:41:43.218Z,10.4245
2022-11-19T13:43:10.414Z,10.595703
2022-11-19T13:44:03.556Z,10.414429
2022-11-19T13:45:12.263Z,10.343933
2022-11-19T13:46:21.956Z,10.223083
2022-11-19T13:47:31.639Z,9.981384
2022-11-19T13:48:40.305Z,9.820251
2022-11-19T13:49:49.996Z,9.638977
2022-11-19T13:50:57.674Z,9.508057
2022-11-19T13:52:06.377Z,9.437561
2022-11-19T13:53:16.029Z,9.306641
2022-11-19T13:54:24.706Z,9.185791
2022-11-19T13:55:34.380Z,9.034729
2022-11-19T13:56:44.068Z,9.075012
2022-11-19T13:57:53.743Z,8.994446
2022-11-19T13:59:03.415Z,8.954163
2022-11-19T14:00:11.095Z,8.893738
2022-11-19T14:01:20.807Z,8.873596
2022-11-19T14:02:29.500Z,8.853455
2022-11-19T14:03:38.173Z,8.944092
2022-11-19T14:04:47.860Z,9.075012
2022-11-19T14:05:57.538Z,9.246216
2022-11-19T14:07:07.418Z,9.42749
2022-11-19T14:08:17.088Z,9.608765
2022-11-19T14:09:26.808Z,9.739685
2022-11-19T14:10:37.322Z,9.820251
2022-11-19T14:11:47.785Z,9.790039
2022-11-19T14:12:57.518Z,9.769897
2022-11-19T14:14:07.208Z,9.820251
2022-11-19T14:15:15.902Z,9.830322
2022-11-19T14:16:25.563Z,9.80011
2022-11-19T14:17:35.261Z,9.739685
2022-11-19T14:18:42.933Z,9.67926
2022-11-19T14:19:52.596Z,9.638977
2022-11-19T14:21:01.261Z,9.54834
2022-11-19T14:22:09.926Z,9.467773
2022-11-19T14:23:19.626Z,9.42749
2022-11-19T14:24:29.303Z,9.407349
2022-11-19T14:25:38.152Z,9.387207
2022-11-19T14:26:52.240Z,9.356995
2022-11-19T14:27:57.476Z,9.306641
2022-11-19T14:29:07.128Z,9.256287
2022-11-19T14:30:15.820Z,9.256287
2022-11-19T14:31:23.487Z,9.226074
2022-11-19T14:32:33.158Z,9.17572
2022-11-19T14:33:43.839Z,9.185791
2022-11-19T14:34:53.513Z,9.17572
2022-11-19T14:36:03.207Z,9.17572
2022-11-19T14:37:12.906Z,9.135437
2022-11-19T14:38:22.580Z,9.105225
2022-11-19T14:39:31.268Z,9.064941
2022-11-19T14:40:43.789Z,9.034729
2022-11-19T14:41:49.577Z,9.004517
2022-11-19T14:42:58.267Z,8.974304
2022-11-19T14:44:07.966Z,8.974304
2022-11-19T14:45:17.645Z,8.954163
2022-11-19T14:46:27.314Z,8.92395
2022-11-19T14:47:37.005Z,8.92395
2022-11-19T14:48:46.769Z,8.883667
2022-11-19T14:49:56.436Z,8.883667
2022-11-19T14:51:06.119Z,8.883667
2022-11-19T14:52:15.789Z,8.853455
2022-11-19T14:53:25.473Z,8.873596
2022-11-19T14:54:35.194Z,8.873596
2022-11-19T14:55:45.043Z,8.883667
2022-11-19T14:56:54.756Z,8.883667
2022-11-19T14:58:03.437Z,8.883667
2022-11-19T14:59:13.126Z,8.913879
2022-11-19T15:00:21.822Z,8.893738
2022-11-19T15:01:29.512Z,8.883667
2022-11-19T15:02:39.171Z,8.873596
2022-11-19T15:03:47.899Z,8.873596
2022-11-19T15:04:57.569Z,8.873596
2022-11-19T15:06:07.312Z,8.853455
2022-11-19T15:07:15.991Z,8.853455
2022-11-19T15:08:25.638Z,8.853455
2022-11-19T15:09:34.328Z,8.853455
2022-11-19T15:10:43.020Z,8.883667
2022-11-19T15:11:52.679Z,8.873596
2022-11-19T15:13:01.356Z,8.853455
2022-11-19T15:14:09.007Z,8.843384
2022-11-19T15:15:18.702Z,8.813171
2022-11-19T15:16:27.361Z,8.782959
2022-11-19T15:17:37.063Z,8.762817
2022-11-19T15:18:45.753Z,8.732605
2022-11-19T15:19:55.430Z,8.732605
2022-11-19T15:21:05.099Z,8.712463
2022-11-19T15:22:12.770Z,8.692322
2022-11-19T15:23:22.497Z,8.692322
2022-11-19T15:24:32.188Z,8.702393
2022-11-19T15:25:39.866Z,8.692322
2022-11-19T15:26:49.556Z,8.692322
2022-11-19T15:27:59.210Z,8.67218
2022-11-19T15:29:07.005Z,8.641968
2022-11-19T15:30:17.726Z,8.631897
2022-11-19T15:31:27.449Z,8.611755
2022-11-19T15:32:37.120Z,8.611755
2022-11-19T15:33:46.793Z,8.611755
2022-11-19T15:35:10.115Z,8.601685
2022-11-19T15:36:06.299Z,8.601685
2022-11-19T15:37:14.967Z,8.601685
2022-11-19T15:38:23.636Z,8.601685
2022-11-19T15:39:33.363Z,8.601685
2022-11-19T15:40:41.049Z,8.601685
2022-11-19T15:41:50.724Z,8.581543
2022-11-19T15:43:00.427Z,8.581543
2022-11-19T15:44:10.075Z,8.581543
2022-11-19T15:45:19.766Z,8.581543
2022-11-19T15:46:30.567Z,8.531189
2022-11-19T15:47:39.150Z,8.561401
2022-11-19T15:48:48.841Z,8.531189
2022-11-19T15:49:57.525Z,8.521118
2022-11-19T15:51:06.221Z,8.551331
2022-11-19T15:52:18.060Z,8.551331
2022-11-19T15:53:24.601Z,8.531189
2022-11-19T15:54:34.270Z,8.551331
2022-11-19T15:55:43.974Z,8.531189
2022-11-19T15:56:53.677Z,8.531189
2022-11-19T15:58:03.419Z,8.511047
2022-11-19T15:59:13.070Z,8.521118
2022-11-19T16:00:22.754Z,8.511047
2022-11-19T16:01:32.511Z,8.521118
2022-11-19T16:02:42.143Z,8.521118
2022-11-19T16:03:51.954Z,8.521118
2022-11-19T16:05:01.698Z,8.511047
2022-11-19T16:06:10.401Z,8.521118
2022-11-19T16:07:20.184Z,8.511047
2022-11-19T16:08:29.766Z,8.511047
2022-11-19T16:09:39.456Z,8.480835
2022-11-19T16:10:49.127Z,8.460693
2022-11-19T16:11:58.894Z,8.460693
2022-11-19T16:13:08.596Z,8.480835
2022-11-19T16:14:18.241Z,8.460693
2022-11-19T16:15:27.742Z,8.460693
2022-11-19T16:16:37.416Z,8.460693
2022-11-19T16:17:46.125Z,8.450623
2022-11-19T16:18:54.783Z,8.440552
2022-11-19T16:20:04.457Z,8.450623
2022-11-19T16:21:12.145Z,8.42041
2022-11-19T16:22:21.811Z,8.440552
2022-11-19T16:23:30.490Z,8.440552
2022-11-19T16:24:40.147Z,8.410339
2022-11-19T16:25:49.812Z,8.380127
2022-11-19T16:27:01.471Z,8.410339
2022-11-19T16:28:11.071Z,8.410339